sensor_id;sensor_type;location;lat;lon;timestamp;temperature;humidity
5796;DHT22;2924;51.458;7.046;2023-05-21T00:01:17;11.90;99.90
5796;DHT22;2924;51.458;7.046;2023-05-21T00:03:42;11.90;99.90
5796;DHT22;2924;51.458;7.046;2023-05-21T00:06:11;11.80;99.90
5796;DHT22;2924;51.458;7.046;2023-05-21T00:08:37;11.70;99.90
5796;DHT22;2924;51.458;7.046;2023-05-21T00:11:03;11.60;99.90
5796;DHT22;2924;51.458;7.046;2023-05-21T00:13:29;11.60;99.90
5796;DHT22;2924;51.458;7.046;2023-05-21T00:15:54;11.60;99.90
5796;DHT22;2924;51.458;7.046;2023-05-21T00:18:20;11.60;99.90
5796;DHT22;2924;51.458;7.046;2023-05-21T00:20:46;11.60;99.90
5796;DHT22;2924;51.458;7.046;2023-05-21T00:23:12;11.60;99.90
5796;DHT22;2924;51.458;7.046;2023-05-21T00:25:37;11.60;99.90
5796;DHT22;2924;51.458;7.046;2023-05-21T00:28:03;11.70;99.90
5796;DHT22;2924;51.458;7.046;2023-05-21T00:30:29;11.70;99.90
5796;DHT22;2924;51.458;7.046;2023-05-21T00:32:54;11.70;99.90
5796;DHT22;2924;51.458;7.046;2023-05-21T00:35:22;11.70;99.90
5796;DHT22;2924;51.458;7.046;2023-05-21T00:37:48;11.80;99.90
5796;DHT22;2924;51.458;7.046;2023-05-21T00:40:14;11.70;99.90
5796;DHT22;2924;51.458;7.046;2023-05-21T00:42:40;11.70;99.90
5796;DHT22;2924;51.458;7.046;2023-05-21T00:45:06;11.70;99.90
5796;DHT22;2924;51.458;7.046;2023-05-21T00:47:33;11.60;99.90
5796;DHT22;2924;51.458;7.046;2023-05-21T00:50:01;11.60;99.90
5796;DHT22;2924;51.458;7.046;2023-05-21T00:52:26;11.50;99.90
5796;DHT22;2924;51.458;7.046;2023-05-21T00:54:52;11.50;99.90
5796;DHT22;2924;51.458;7.046;2023-05-21T00:57:18;11.50;99.90
5796;DHT22;2924;51.458;7.046;2023-05-21T00:59:46;11.50;99.90
5796;DHT22;2924;51.458;7.046;2023-05-21T01:02:12;11.50;99.90
5796;DHT22;2924;51.458;7.046;2023-05-21T01:04:38;11.50;99.90
5796;DHT22;2924;51.458;7.046;2023-05-21T01:07:04;11.60;99.90
5796;DHT22;2924;51.458;7.046;2023-05-21T01:09:31;11.60;99.90
5796;DHT22;2924;51.458;7.046;2023-05-21T01:11:56;11.60;99.90
5796;DHT22;2924;51.458;7.046;2023-05-21T01:14:24;11.70;99.90
5796;DHT22;2924;51.458;7.046;2023-05-21T01:16:51;11.70;99.90
5796;DHT22;2924;51.458;7.046;2023-05-21T01:19:21;11.70;99.90
5796;DHT22;2924;51.458;7.046;2023-05-21T01:21:52;11.80;99.90
5796;DHT22;2924;51.458;7.046;2023-05-21T01:24:20;11.80;99.90
5796;DHT22;2924;51.458;7.046;2023-05-21T01:26:46;11.80;99.90
5796;DHT22;2924;51.458;7.046;2023-05-21T01:29:13;11.80;99.90
5796;DHT22;2924;51.458;7.046;2023-05-21T01:31:55;11.70;99.90
5796;DHT22;2924;51.458;7.046;2023-05-21T01:34:32;11.60;99.90
5796;DHT22;2924;51.458;7.046;2023-05-21T01:37:12;11.60;99.90
5796;DHT22;2924;51.458;7.046;2023-05-21T01:39:43;11.50;99.90
5796;DHT22;2924;51.458;7.046;2023-05-21T01:42:11;11.50;99.90
5796;DHT22;2924;51.458;7.046;2023-05-21T01:44:38;11.50;99.90
5796;DHT22;2924;51.458;7.046;2023-05-21T01:47:04;11.60;99.90
5796;DHT22;2924;51.458;7.046;2023-05-21T01:49:31;11.50;99.90
5796;DHT22;2924;51.458;7.046;2023-05-21T01:51:57;11.40;99.90
5796;DHT22;2924;51.458;7.046;2023-05-21T01:54:22;11.40;99.90
5796;DHT22;2924;51.458;7.046;2023-05-21T01:56:48;11.40;99.90
5796;DHT22;2924;51.458;7.046;2023-05-21T01:59:14;11.40;99.90
5796;DHT22;2924;51.458;7.046;2023-05-21T02:01:41;11.40;99.90
5796;DHT22;2924;51.458;7.046;2023-05-21T02:04:07;11.40;99.90
5796;DHT22;2924;51.458;7.046;2023-05-21T02:09:53;11.60;99.90
5796;DHT22;2924;51.458;7.046;2023-05-21T02:12:19;11.60;99.90
5796;DHT22;2924;51.458;7.046;2023-05-21T02:14:44;11.60;99.90
5796;DHT22;2924;51.458;7.046;2023-05-21T02:17:14;11.60;99.90
5796;DHT22;2924;51.458;7.046;2023-05-21T02:19:41;11.60;99.90
5796;DHT22;2924;51.458;7.046;2023-05-21T02:22:09;11.60;99.90
5796;DHT22;2924;51.458;7.046;2023-05-21T02:24:35;11.60;99.90
5796;DHT22;2924;51.458;7.046;2023-05-21T02:27:00;11.50;99.90
5796;DHT22;2924;51.458;7.046;2023-05-21T02:29:27;11.50;99.90
5796;DHT22;2924;51.458;7.046;2023-05-21T02:31:53;11.40;99.90
5796;DHT22;2924;51.458;7.046;2023-05-21T02:34:18;11.40;99.90
5796;DHT22;2924;51.458;7.046;2023-05-21T02:36:45;11.40;99.90
5796;DHT22;2924;51.458;7.046;2023-05-21T02:39:13;11.40;99.90
5796;DHT22;2924;51.458;7.046;2023-05-21T02:41:40;11.40;99.90
5796;DHT22;2924;51.458;7.046;2023-05-21T02:44:05;11.40;99.90
5796;DHT22;2924;51.458;7.046;2023-05-21T02:46:31;11.40;99.90
5796;DHT22;2924;51.458;7.046;2023-05-21T02:48:56;11.40;99.90
5796;DHT22;2924;51.458;7.046;2023-05-21T02:51:22;11.40;99.90
5796;DHT22;2924;51.458;7.046;2023-05-21T02:53:47;11.30;99.90
5796;DHT22;2924;51.458;7.046;2023-05-21T02:56:13;11.30;99.90
5796;DHT22;2924;51.458;7.046;2023-05-21T02:58:39;11.20;99.90
5796;DHT22;2924;51.458;7.046;2023-05-21T03:01:04;11.20;99.90
5796;DHT22;2924;51.458;7.046;2023-05-21T03:03:30;11.20;99.90
5796;DHT22;2924;51.458;7.046;2023-05-21T03:05:56;11.20;99.90
5796;DHT22;2924;51.458;7.046;2023-05-21T03:08:23;11.20;99.90
5796;DHT22;2924;51.458;7.046;2023-05-21T03:10:49;11.20;99.90
5796;DHT22;2924;51.458;7.046;2023-05-21T03:13:14;11.10;99.90
5796;DHT22;2924;51.458;7.046;2023-05-21T03:15:40;11.00;99.90
5796;DHT22;2924;51.458;7.046;2023-05-21T03:18:05;11.00;99.90
5796;DHT22;2924;51.458;7.046;2023-05-21T03:20:31;11.00;99.90
5796;DHT22;2924;51.458;7.046;2023-05-21T03:22:57;10.90;99.90
5796;DHT22;2924;51.458;7.046;2023-05-21T03:25:24;10.80;99.90
5796;DHT22;2924;51.458;7.046;2023-05-21T03:27:50;10.90;99.90
5796;DHT22;2924;51.458;7.046;2023-05-21T03:30:16;10.80;99.90
5796;DHT22;2924;51.458;7.046;2023-05-21T03:32:42;10.80;99.90
5796;DHT22;2924;51.458;7.046;2023-05-21T03:35:09;10.80;99.90
5796;DHT22;2924;51.458;7.046;2023-05-21T03:37:35;10.80;99.90
5796;DHT22;2924;51.458;7.046;2023-05-21T03:40:00;10.80;99.90
5796;DHT22;2924;51.458;7.046;2023-05-21T03:42:26;10.80;99.90
5796;DHT22;2924;51.458;7.046;2023-05-21T03:44:51;10.80;99.90
5796;DHT22;2924;51.458;7.046;2023-05-21T03:47:17;10.80;99.90
5796;DHT22;2924;51.458;7.046;2023-05-21T03:49:42;11.00;99.90
5796;DHT22;2924;51.458;7.046;2023-05-21T03:52:08;11.00;99.90
5796;DHT22;2924;51.458;7.046;2023-05-21T03:54:33;11.00;99.90
5796;DHT22;2924;51.458;7.046;2023-05-21T03:56:59;11.00;99.90
5796;DHT22;2924;51.458;7.046;2023-05-21T03:59:25;11.00;99.90
5796;DHT22;2924;51.458;7.046;2023-05-21T04:01:50;11.00;99.90
5796;DHT22;2924;51.458;7.046;2023-05-21T04:04:16;11.00;99.90
5796;DHT22;2924;51.458;7.046;2023-05-21T04:06:41;11.00;99.90
5796;DHT22;2924;51.458;7.046;2023-05-21T04:09:08;11.10;99.90
5796;DHT22;2924;51.458;7.046;2023-05-21T04:11:34;11.10;99.90
5796;DHT22;2924;51.458;7.046;2023-05-21T04:13:59;11.20;99.90
5796;DHT22;2924;51.458;7.046;2023-05-21T04:16:25;11.20;99.90
5796;DHT22;2924;51.458;7.046;2023-05-21T04:18:51;11.30;99.90
5796;DHT22;2924;51.458;7.046;2023-05-21T04:21:19;11.30;99.90
5796;DHT22;2924;51.458;7.046;2023-05-21T04:23:46;11.30;99.90
5796;DHT22;2924;51.458;7.046;2023-05-21T04:26:11;11.40;99.90
5796;DHT22;2924;51.458;7.046;2023-05-21T04:28:37;11.40;99.90
5796;DHT22;2924;51.458;7.046;2023-05-21T04:31:06;11.40;99.90
5796;DHT22;2924;51.458;7.046;2023-05-21T04:33:33;11.40;99.90
5796;DHT22;2924;51.458;7.046;2023-05-21T04:36:00;11.50;99.90
5796;DHT22;2924;51.458;7.046;2023-05-21T04:38:26;11.50;99.90
5796;DHT22;2924;51.458;7.046;2023-05-21T04:40:52;11.50;99.90
5796;DHT22;2924;51.458;7.046;2023-05-21T04:43:18;11.60;99.90
5796;DHT22;2924;51.458;7.046;2023-05-21T04:45:52;11.60;99.90
5796;DHT22;2924;51.458;7.046;2023-05-21T04:48:19;11.60;99.90
5796;DHT22;2924;51.458;7.046;2023-05-21T04:50:44;11.60;99.90
5796;DHT22;2924;51.458;7.046;2023-05-21T04:53:11;11.60;99.90
5796;DHT22;2924;51.458;7.046;2023-05-21T04:55:36;11.70;99.90
5796;DHT22;2924;51.458;7.046;2023-05-21T04:58:05;11.70;99.90
5796;DHT22;2924;51.458;7.046;2023-05-21T05:00:32;11.70;99.90
5796;DHT22;2924;51.458;7.046;2023-05-21T05:02:57;11.80;99.90
5796;DHT22;2924;51.458;7.046;2023-05-21T05:05:23;11.90;99.90
5796;DHT22;2924;51.458;7.046;2023-05-21T05:07:48;11.90;99.90
5796;DHT22;2924;51.458;7.046;2023-05-21T05:10:14;12.00;99.90
5796;DHT22;2924;51.458;7.046;2023-05-21T05:12:39;12.10;99.90
5796;DHT22;2924;51.458;7.046;2023-05-21T05:15:06;12.20;99.90
5796;DHT22;2924;51.458;7.046;2023-05-21T05:17:31;12.20;99.90
5796;DHT22;2924;51.458;7.046;2023-05-21T05:19:58;12.20;99.90
5796;DHT22;2924;51.458;7.046;2023-05-21T05:22:24;12.30;99.90
5796;DHT22;2924;51.458;7.046;2023-05-21T05:24:50;12.20;99.90
5796;DHT22;2924;51.458;7.046;2023-05-21T05:27:15;12.30;99.90
5796;DHT22;2924;51.458;7.046;2023-05-21T05:29:43;12.30;99.90
5796;DHT22;2924;51.458;7.046;2023-05-21T05:32:08;12.40;99.90
5796;DHT22;2924;51.458;7.046;2023-05-21T05:34:34;12.60;99.90
5796;DHT22;2924;51.458;7.046;2023-05-21T05:37:00;12.80;99.90
5796;DHT22;2924;51.458;7.046;2023-05-21T05:39:27;12.90;99.90
5796;DHT22;2924;51.458;7.046;2023-05-21T05:41:52;13.00;99.90
5796;DHT22;2924;51.458;7.046;2023-05-21T05:44:18;12.90;99.90
5796;DHT22;2924;51.458;7.046;2023-05-21T05:46:44;13.00;99.90
5796;DHT22;2924;51.458;7.046;2023-05-21T05:49:09;13.20;99.90
5796;DHT22;2924;51.458;7.046;2023-05-21T05:51:35;13.30;99.90
5796;DHT22;2924;51.458;7.046;2023-05-21T05:54:01;13.40;99.90
5796;DHT22;2924;51.458;7.046;2023-05-21T05:56:27;13.60;99.90
5796;DHT22;2924;51.458;7.046;2023-05-21T05:58:52;13.70;99.90
5796;DHT22;2924;51.458;7.046;2023-05-21T06:01:18;13.90;99.90
5796;DHT22;2924;51.458;7.046;2023-05-21T06:03:44;13.90;99.90
5796;DHT22;2924;51.458;7.046;2023-05-21T06:06:10;13.90;99.90
5796;DHT22;2924;51.458;7.046;2023-05-21T06:08:36;13.70;99.90
5796;DHT22;2924;51.458;7.046;2023-05-21T06:11:02;13.50;99.90
5796;DHT22;2924;51.458;7.046;2023-05-21T06:13:28;13.30;99.90
5796;DHT22;2924;51.458;7.046;2023-05-21T06:15:53;13.30;99.90
5796;DHT22;2924;51.458;7.046;2023-05-21T06:18:19;13.50;99.90
5796;DHT22;2924;51.458;7.046;2023-05-21T06:20:44;13.50;99.90
5796;DHT22;2924;51.458;7.046;2023-05-21T06:23:10;13.70;99.90
5796;DHT22;2924;51.458;7.046;2023-05-21T06:25:35;13.70;99.90
5796;DHT22;2924;51.458;7.046;2023-05-21T06:28:02;13.90;99.90
5796;DHT22;2924;51.458;7.046;2023-05-21T06:30:27;14.00;99.90
5796;DHT22;2924;51.458;7.046;2023-05-21T06:32:53;13.90;99.90
5796;DHT22;2924;51.458;7.046;2023-05-21T06:35:18;13.90;99.90
5796;DHT22;2924;51.458;7.046;2023-05-21T06:37:44;14.00;99.90
5796;DHT22;2924;51.458;7.046;2023-05-21T06:40:10;13.90;99.90
5796;DHT22;2924;51.458;7.046;2023-05-21T06:42:36;13.90;99.90
5796;DHT22;2924;51.458;7.046;2023-05-21T06:45:01;13.90;99.90
5796;DHT22;2924;51.458;7.046;2023-05-21T06:47:27;13.90;99.90
5796;DHT22;2924;51.458;7.046;2023-05-21T06:49:52;14.20;99.90
5796;DHT22;2924;51.458;7.046;2023-05-21T06:52:18;14.40;99.90
5796;DHT22;2924;51.458;7.046;2023-05-21T06:54:43;14.70;99.90
5796;DHT22;2924;51.458;7.046;2023-05-21T06:57:09;14.70;99.90
5796;DHT22;2924;51.458;7.046;2023-05-21T06:59:34;14.90;99.90
5796;DHT22;2924;51.458;7.046;2023-05-21T07:02:00;15.30;99.90
5796;DHT22;2924;51.458;7.046;2023-05-21T07:04:26;15.50;99.90
5796;DHT22;2924;51.458;7.046;2023-05-21T07:06:51;15.30;99.90
5796;DHT22;2924;51.458;7.046;2023-05-21T07:09:17;15.60;99.90
5796;DHT22;2924;51.458;7.046;2023-05-21T07:11:43;15.20;99.90
5796;DHT22;2924;51.458;7.046;2023-05-21T07:14:09;15.30;99.90
5796;DHT22;2924;51.458;7.046;2023-05-21T07:16:34;15.60;99.90
5796;DHT22;2924;51.458;7.046;2023-05-21T07:19:00;15.80;99.90
5796;DHT22;2924;51.458;7.046;2023-05-21T07:21:25;16.30;99.90
5796;DHT22;2924;51.458;7.046;2023-05-21T07:23:51;17.00;99.90
5796;DHT22;2924;51.458;7.046;2023-05-21T07:26:16;17.40;99.90
5796;DHT22;2924;51.458;7.046;2023-05-21T07:28:42;17.60;99.90
5796;DHT22;2924;51.458;7.046;2023-05-21T07:31:09;18.20;99.90
5796;DHT22;2924;51.458;7.046;2023-05-21T07:33:36;18.70;99.90
5796;DHT22;2924;51.458;7.046;2023-05-21T07:36:02;19.30;99.90
5796;DHT22;2924;51.458;7.046;2023-05-21T07:38:28;20.30;99.90
5796;DHT22;2924;51.458;7.046;2023-05-21T07:40:54;20.50;99.90
5796;DHT22;2924;51.458;7.046;2023-05-21T07:43:21;21.00;99.90
5796;DHT22;2924;51.458;7.046;2023-05-21T07:45:46;20.50;99.90
5796;DHT22;2924;51.458;7.046;2023-05-21T07:48:12;20.90;99.90
5796;DHT22;2924;51.458;7.046;2023-05-21T07:50:38;20.40;99.90
5796;DHT22;2924;51.458;7.046;2023-05-21T07:53:04;20.00;99.90
5796;DHT22;2924;51.458;7.046;2023-05-21T07:55:29;19.60;99.90
5796;DHT22;2924;51.458;7.046;2023-05-21T07:57:55;19.30;99.90
5796;DHT22;2924;51.458;7.046;2023-05-21T08:00:22;18.80;99.90
5796;DHT22;2924;51.458;7.046;2023-05-21T08:02:48;18.60;99.90
5796;DHT22;2924;51.458;7.046;2023-05-21T08:05:13;19.30;99.90
5796;DHT22;2924;51.458;7.046;2023-05-21T08:07:40;20.10;99.90
5796;DHT22;2924;51.458;7.046;2023-05-21T08:10:06;19.50;99.90
5796;DHT22;2924;51.458;7.046;2023-05-21T08:12:33;19.40;99.90
5796;DHT22;2924;51.458;7.046;2023-05-21T08:14:59;20.40;99.90
5796;DHT22;2924;51.458;7.046;2023-05-21T08:17:24;20.80;99.90
5796;DHT22;2924;51.458;7.046;2023-05-21T08:19:50;20.90;99.90
5796;DHT22;2924;51.458;7.046;2023-05-21T08:22:16;20.10;99.90
5796;DHT22;2924;51.458;7.046;2023-05-21T08:24:42;20.00;99.90
5796;DHT22;2924;51.458;7.046;2023-05-21T08:27:08;19.60;99.90
5796;DHT22;2924;51.458;7.046;2023-05-21T08:29:33;20.00;99.90
5796;DHT22;2924;51.458;7.046;2023-05-21T08:31:59;20.40;99.90
5796;DHT22;2924;51.458;7.046;2023-05-21T08:34:25;20.10;99.90
5796;DHT22;2924;51.458;7.046;2023-05-21T08:36:50;20.10;99.90
5796;DHT22;2924;51.458;7.046;2023-05-21T08:39:18;20.00;99.90
5796;DHT22;2924;51.458;7.046;2023-05-21T08:41:44;20.60;99.90
5796;DHT22;2924;51.458;7.046;2023-05-21T08:44:14;21.50;99.90
5796;DHT22;2924;51.458;7.046;2023-05-21T08:46:40;21.30;99.90
5796;DHT22;2924;51.458;7.046;2023-05-21T08:49:11;20.70;99.90
5796;DHT22;2924;51.458;7.046;2023-05-21T08:51:37;20.70;99.90
5796;DHT22;2924;51.458;7.046;2023-05-21T08:54:04;21.30;99.90
5796;DHT22;2924;51.458;7.046;2023-05-21T08:56:33;21.60;99.90
5796;DHT22;2924;51.458;7.046;2023-05-21T08:59:01;22.00;99.90
5796;DHT22;2924;51.458;7.046;2023-05-21T09:01:27;22.50;99.90
5796;DHT22;2924;51.458;7.046;2023-05-21T09:03:55;22.30;99.90
5796;DHT22;2924;51.458;7.046;2023-05-21T09:06:22;21.90;99.90
5796;DHT22;2924;51.458;7.046;2023-05-21T09:08:55;22.30;99.90
5796;DHT22;2924;51.458;7.046;2023-05-21T09:11:23;23.00;99.90
5796;DHT22;2924;51.458;7.046;2023-05-21T09:13:49;23.90;99.90
5796;DHT22;2924;51.458;7.046;2023-05-21T09:16:15;24.70;99.90
5796;DHT22;2924;51.458;7.046;2023-05-21T09:18:41;25.30;99.90
5796;DHT22;2924;51.458;7.046;2023-05-21T09:21:26;25.60;99.90
5796;DHT22;2924;51.458;7.046;2023-05-21T09:23:56;24.40;99.90
5796;DHT22;2924;51.458;7.046;2023-05-21T09:26:23;25.20;99.90
5796;DHT22;2924;51.458;7.046;2023-05-21T09:28:50;25.10;99.90
5796;DHT22;2924;51.458;7.046;2023-05-21T09:31:16;25.90;99.90
5796;DHT22;2924;51.458;7.046;2023-05-21T09:33:46;25.00;99.90
5796;DHT22;2924;51.458;7.046;2023-05-21T09:36:17;25.60;99.90
5796;DHT22;2924;51.458;7.046;2023-05-21T09:38:44;25.50;99.90
5796;DHT22;2924;51.458;7.046;2023-05-21T09:41:10;25.40;99.90
5796;DHT22;2924;51.458;7.046;2023-05-21T09:43:36;24.60;99.90
5796;DHT22;2924;51.458;7.046;2023-05-21T09:46:02;24.40;99.90
5796;DHT22;2924;51.458;7.046;2023-05-21T09:48:37;24.00;99.90
5796;DHT22;2924;51.458;7.046;2023-05-21T09:51:11;24.40;99.90
5796;DHT22;2924;51.458;7.046;2023-05-21T09:53:54;22.80;99.90
5796;DHT22;2924;51.458;7.046;2023-05-21T09:56:24;23.30;99.90
5796;DHT22;2924;51.458;7.046;2023-05-21T09:59:08;23.30;99.90
5796;DHT22;2924;51.458;7.046;2023-05-21T10:01:34;24.00;99.90
5796;DHT22;2924;51.458;7.046;2023-05-21T10:04:06;24.70;99.90
5796;DHT22;2924;51.458;7.046;2023-05-21T10:06:41;26.00;99.90
5796;DHT22;2924;51.458;7.046;2023-05-21T10:09:09;27.10;99.90
5796;DHT22;2924;51.458;7.046;2023-05-21T10:11:35;27.50;99.10
5796;DHT22;2924;51.458;7.046;2023-05-21T10:14:06;27.20;99.10
5796;DHT22;2924;51.458;7.046;2023-05-21T10:16:34;26.80;99.90
5796;DHT22;2924;51.458;7.046;2023-05-21T10:19:00;27.00;98.90
5796;DHT22;2924;51.458;7.046;2023-05-21T10:21:27;25.30;99.90
5796;DHT22;2924;51.458;7.046;2023-05-21T10:23:54;24.30;99.90
5796;DHT22;2924;51.458;7.046;2023-05-21T10:26:22;24.70;99.90
5796;DHT22;2924;51.458;7.046;2023-05-21T10:28:50;25.80;99.90
5796;DHT22;2924;51.458;7.046;2023-05-21T10:31:15;25.00;99.90
5796;DHT22;2924;51.458;7.046;2023-05-21T10:33:42;23.80;99.90
5796;DHT22;2924;51.458;7.046;2023-05-21T10:36:08;23.20;99.90
5796;DHT22;2924;51.458;7.046;2023-05-21T10:38:35;23.20;99.90
5796;DHT22;2924;51.458;7.046;2023-05-21T10:41:02;23.90;99.90
5796;DHT22;2924;51.458;7.046;2023-05-21T10:52:12;24.20;99.90
5796;DHT22;2924;51.458;7.046;2023-05-21T11:00:10;23.90;99.90
5796;DHT22;2924;51.458;7.046;2023-05-21T11:02:37;22.80;99.90
5796;DHT22;2924;51.458;7.046;2023-05-21T11:05:03;22.20;99.90
5796;DHT22;2924;51.458;7.046;2023-05-21T11:07:52;22.60;99.90
5796;DHT22;2924;51.458;7.046;2023-05-21T11:10:38;22.90;99.90
5796;DHT22;2924;51.458;7.046;2023-05-21T11:13:10;23.90;99.90
5796;DHT22;2924;51.458;7.046;2023-05-21T11:21:13;24.70;99.90
5796;DHT22;2924;51.458;7.046;2023-05-21T11:23:54;25.60;99.90
5796;DHT22;2924;51.458;7.046;2023-05-21T11:26:25;25.30;99.90
5796;DHT22;2924;51.458;7.046;2023-05-21T11:31:30;25.20;99.90
5796;DHT22;2924;51.458;7.046;2023-05-21T11:34:14;25.80;99.90
5796;DHT22;2924;51.458;7.046;2023-05-21T11:36:44;25.40;99.90
5796;DHT22;2924;51.458;7.046;2023-05-21T11:41:57;25.10;99.90
5796;DHT22;2924;51.458;7.046;2023-05-21T11:44:45;24.70;99.90
5796;DHT22;2924;51.458;7.046;2023-05-21T11:47:16;25.10;99.90
5796;DHT22;2924;51.458;7.046;2023-05-21T11:49:43;25.40;99.90
5796;DHT22;2924;51.458;7.046;2023-05-21T11:52:10;24.60;99.90
5796;DHT22;2924;51.458;7.046;2023-05-21T11:54:43;23.70;99.90
5796;DHT22;2924;51.458;7.046;2023-05-21T11:57:16;24.10;99.90
5796;DHT22;2924;51.458;7.046;2023-05-21T11:59:45;25.10;99.90
5796;DHT22;2924;51.458;7.046;2023-05-21T12:02:19;25.30;99.90
5796;DHT22;2924;51.458;7.046;2023-05-21T12:04:47;25.10;99.90
5796;DHT22;2924;51.458;7.046;2023-05-21T12:07:14;24.60;99.90
5796;DHT22;2924;51.458;7.046;2023-05-21T12:09:50;23.90;99.90
5796;DHT22;2924;51.458;7.046;2023-05-21T12:12:19;23.90;99.90
5796;DHT22;2924;51.458;7.046;2023-05-21T12:14:50;24.70;99.90
5796;DHT22;2924;51.458;7.046;2023-05-21T12:17:17;24.70;99.90
5796;DHT22;2924;51.458;7.046;2023-05-21T12:19:45;24.30;99.90
5796;DHT22;2924;51.458;7.046;2023-05-21T12:22:11;24.20;99.90
5796;DHT22;2924;51.458;7.046;2023-05-21T12:24:37;23.70;99.90
5796;DHT22;2924;51.458;7.046;2023-05-21T12:27:04;24.00;99.90
5796;DHT22;2924;51.458;7.046;2023-05-21T12:29:35;24.40;99.90
5796;DHT22;2924;51.458;7.046;2023-05-21T12:32:03;24.90;99.90
5796;DHT22;2924;51.458;7.046;2023-05-21T12:34:50;25.20;99.90
5796;DHT22;2924;51.458;7.046;2023-05-21T12:37:21;24.30;99.90
5796;DHT22;2924;51.458;7.046;2023-05-21T12:39:52;24.20;99.90
5796;DHT22;2924;51.458;7.046;2023-05-21T12:42:25;23.80;99.90
5796;DHT22;2924;51.458;7.046;2023-05-21T12:44:52;23.40;99.90
5796;DHT22;2924;51.458;7.046;2023-05-21T12:47:18;23.00;99.90
5796;DHT22;2924;51.458;7.046;2023-05-21T12:49:45;22.80;99.90
5796;DHT22;2924;51.458;7.046;2023-05-21T12:52:13;22.90;99.90
5796;DHT22;2924;51.458;7.046;2023-05-21T12:54:40;23.60;99.90
5796;DHT22;2924;51.458;7.046;2023-05-21T12:57:17;23.20;99.90
5796;DHT22;2924;51.458;7.046;2023-05-21T12:59:47;22.60;99.90
5796;DHT22;2924;51.458;7.046;2023-05-21T13:02:19;22.30;99.90
5796;DHT22;2924;51.458;7.046;2023-05-21T13:04:45;22.70;99.90
5796;DHT22;2924;51.458;7.046;2023-05-21T13:07:12;22.70;99.90
5796;DHT22;2924;51.458;7.046;2023-05-21T13:09:37;23.30;99.90
5796;DHT22;2924;51.458;7.046;2023-05-21T13:12:03;24.30;99.90
5796;DHT22;2924;51.458;7.046;2023-05-21T13:14:28;25.40;99.90
5796;DHT22;2924;51.458;7.046;2023-05-21T13:16:54;26.00;99.90
5796;DHT22;2924;51.458;7.046;2023-05-21T13:19:20;26.20;99.90
5796;DHT22;2924;51.458;7.046;2023-05-21T13:21:45;26.40;99.90
5796;DHT22;2924;51.458;7.046;2023-05-21T13:24:11;26.60;99.90
5796;DHT22;2924;51.458;7.046;2023-05-21T13:26:36;26.50;99.90
5796;DHT22;2924;51.458;7.046;2023-05-21T13:29:02;26.90;99.90
5796;DHT22;2924;51.458;7.046;2023-05-21T13:31:27;28.00;99.90
5796;DHT22;2924;51.458;7.046;2023-05-21T13:33:53;28.20;99.90
5796;DHT22;2924;51.458;7.046;2023-05-21T13:36:18;25.90;99.90
5796;DHT22;2924;51.458;7.046;2023-05-21T13:38:44;25.40;99.90
5796;DHT22;2924;51.458;7.046;2023-05-21T13:41:09;25.90;99.90
5796;DHT22;2924;51.458;7.046;2023-05-21T13:43:35;26.40;99.90
5796;DHT22;2924;51.458;7.046;2023-05-21T13:46:01;26.30;99.90
5796;DHT22;2924;51.458;7.046;2023-05-21T13:48:27;25.40;99.90
5796;DHT22;2924;51.458;7.046;2023-05-21T13:50:52;24.60;99.90
5796;DHT22;2924;51.458;7.046;2023-05-21T13:53:18;24.40;99.90
5796;DHT22;2924;51.458;7.046;2023-05-21T13:55:43;23.90;99.90
5796;DHT22;2924;51.458;7.046;2023-05-21T13:58:09;24.60;99.90
5796;DHT22;2924;51.458;7.046;2023-05-21T14:00:35;25.20;99.90
5796;DHT22;2924;51.458;7.046;2023-05-21T14:03:00;24.60;99.90
5796;DHT22;2924;51.458;7.046;2023-05-21T14:05:26;23.80;99.90
5796;DHT22;2924;51.458;7.046;2023-05-21T14:07:51;24.00;99.90
5796;DHT22;2924;51.458;7.046;2023-05-21T14:10:17;24.80;99.90
5796;DHT22;2924;51.458;7.046;2023-05-21T14:12:43;25.80;99.90
5796;DHT22;2924;51.458;7.046;2023-05-21T14:15:10;26.10;99.90
5796;DHT22;2924;51.458;7.046;2023-05-21T14:17:36;26.00;99.90
5796;DHT22;2924;51.458;7.046;2023-05-21T14:20:05;26.00;99.90
5796;DHT22;2924;51.458;7.046;2023-05-21T14:22:31;26.30;99.90
5796;DHT22;2924;51.458;7.046;2023-05-21T14:24:57;26.80;99.90
5796;DHT22;2924;51.458;7.046;2023-05-21T14:27:22;26.90;99.90
5796;DHT22;2924;51.458;7.046;2023-05-21T14:29:48;27.50;99.90
5796;DHT22;2924;51.458;7.046;2023-05-21T14:32:13;27.40;99.90
5796;DHT22;2924;51.458;7.046;2023-05-21T14:34:39;27.10;99.90
5796;DHT22;2924;51.458;7.046;2023-05-21T14:37:05;27.40;99.90
5796;DHT22;2924;51.458;7.046;2023-05-21T14:39:31;27.80;99.90
5796;DHT22;2924;51.458;7.046;2023-05-21T14:41:56;26.80;99.90
5796;DHT22;2924;51.458;7.046;2023-05-21T14:44:23;26.40;99.90
5796;DHT22;2924;51.458;7.046;2023-05-21T14:46:49;26.80;99.90
5796;DHT22;2924;51.458;7.046;2023-05-21T14:49:15;26.60;99.90
5796;DHT22;2924;51.458;7.046;2023-05-21T14:51:41;27.00;99.90
5796;DHT22;2924;51.458;7.046;2023-05-21T14:54:07;27.20;99.90
5796;DHT22;2924;51.458;7.046;2023-05-21T14:56:33;26.60;99.90
5796;DHT22;2924;51.458;7.046;2023-05-21T14:58:59;26.20;99.90
5796;DHT22;2924;51.458;7.046;2023-05-21T15:01:24;26.80;99.90
5796;DHT22;2924;51.458;7.046;2023-05-21T15:03:50;27.20;99.90
5796;DHT22;2924;51.458;7.046;2023-05-21T15:06:16;28.00;99.90
5796;DHT22;2924;51.458;7.046;2023-05-21T15:08:41;29.00;99.90
5796;DHT22;2924;51.458;7.046;2023-05-21T15:11:07;29.80;99.20
5796;DHT22;2924;51.458;7.046;2023-05-21T15:13:34;29.60;98.50
5796;DHT22;2924;51.458;7.046;2023-05-21T15:15:59;29.20;98.20
5796;DHT22;2924;51.458;7.046;2023-05-21T15:18:25;28.50;98.90
5796;DHT22;2924;51.458;7.046;2023-05-21T15:20:51;28.20;99.50
5796;DHT22;2924;51.458;7.046;2023-05-21T15:23:17;27.80;99.40
5796;DHT22;2924;51.458;7.046;2023-05-21T15:25:43;27.40;99.90
5796;DHT22;2924;51.458;7.046;2023-05-21T15:28:08;27.80;99.90
5796;DHT22;2924;51.458;7.046;2023-05-21T15:30:34;27.60;99.70
5796;DHT22;2924;51.458;7.046;2023-05-21T15:33:00;27.20;99.90
5796;DHT22;2924;51.458;7.046;2023-05-21T15:35:25;27.90;99.90
5796;DHT22;2924;51.458;7.046;2023-05-21T15:37:51;28.60;99.90
5796;DHT22;2924;51.458;7.046;2023-05-21T15:40:16;27.80;99.90
5796;DHT22;2924;51.458;7.046;2023-05-21T15:42:42;27.50;99.90
5796;DHT22;2924;51.458;7.046;2023-05-21T15:45:08;27.10;99.90
5796;DHT22;2924;51.458;7.046;2023-05-21T15:47:34;27.10;99.90
5796;DHT22;2924;51.458;7.046;2023-05-21T15:49:59;27.40;99.90
5796;DHT22;2924;51.458;7.046;2023-05-21T15:52:25;27.80;99.90
5796;DHT22;2924;51.458;7.046;2023-05-21T15:54:50;28.10;99.90
5796;DHT22;2924;51.458;7.046;2023-05-21T15:57:16;28.00;99.90
5796;DHT22;2924;51.458;7.046;2023-05-21T15:59:42;27.50;99.90
5796;DHT22;2924;51.458;7.046;2023-05-21T16:02:08;26.90;99.90
5796;DHT22;2924;51.458;7.046;2023-05-21T16:04:33;26.80;99.90
5796;DHT22;2924;51.458;7.046;2023-05-21T16:06:59;26.40;99.90
5796;DHT22;2924;51.458;7.046;2023-05-21T16:09:25;26.10;99.90
5796;DHT22;2924;51.458;7.046;2023-05-21T16:11:50;25.80;99.90
5796;DHT22;2924;51.458;7.046;2023-05-21T16:14:16;25.70;99.90
5796;DHT22;2924;51.458;7.046;2023-05-21T16:16:41;26.10;99.90
5796;DHT22;2924;51.458;7.046;2023-05-21T16:19:07;26.10;99.90
5796;DHT22;2924;51.458;7.046;2023-05-21T16:21:32;26.00;99.90
5796;DHT22;2924;51.458;7.046;2023-05-21T16:23:58;26.00;99.90
5796;DHT22;2924;51.458;7.046;2023-05-21T16:26:24;26.20;99.90
5796;DHT22;2924;51.458;7.046;2023-05-21T16:28:50;26.20;99.90